Akron, CO

5:56 AM MDT on October 25, 2014 (GMT -0600)
Akron-Washington County | Change Station
CLOSE
Current Station
Airport
Location: Akron,
Elevation: 4662 ft
Nearby Weather Stations

Elev 4662 ft 40.17 °N, 103.21 °W | Updated 3 minutes ago

Clear
Clear
46 °F
Feels Like 40 °F
N
14
Wind Variable Wind from WSW

Today
High -- | Low -- °F
--% Chance of Precip.
Yesterday
High -- | Low -- °F
Precip. -- in
7:14 AM 5:58 PM
Waxing Crescent, 3% visible
Pressure 30.06 in
Visibility 10.0 miles
Clouds Clear
Windchill 40 °F
Dew Point 28 °F
Humidity 50%
Rainfall 0.00 in
Snow Depth Not available.
UV 0 out of 12
Pollen 2.90 out of 12
Air Quality Not available.
Flu Activity Sporadic
METAR KAKO 251153Z AUTO 25012KT 10SM -RA CLR 08/M02 A3016 RMK AO2 RAB34 SLP179 P0000 60000 T00781022 10150 20072 55001

More Conditions Fewer Conditions

Pressure 30.06 in
Visibility 10.0 miles
Clouds Clear
Windchill 40 °F
Dew Point 28 °F
Humidity 50%
Rainfall 0.00 in
Snow Depth Not available.
UV 0 out of 12
Pollen 2.90 out of 12
Air Quality Not available.
Flu Activity Sporadic
METAR KAKO 251153Z AUTO 25012KT 10SM -RA CLR 08/M02 A3016 RMK AO2 RAB34 SLP179 P0000 60000 T00781022 10150 20072 55001

More Conditions Fewer Conditions

10-Day Weather Forecast

Almanac

Astronomy

Oct. 25, 2014 Rise Set
Actual Time 7:14 AM MDT 5:58 PM MDT
Civil Twilight 6:46 AM MDT 6:26 PM MDT
Nautical Twilight 6:14 AM MDT 6:58 PM MDT
Astronomical Twilight 5:43 AM MDT 7:29 PM MDT
Moon 8:55 AM MDT 7:23 PM MDT
Length of Visible Light 11h 40m
Length of Day
10h 44m
Tomorrow will be 2m 25s shorter.
Waxing Crescent, 3% of the Moon is Illuminated
Today
Waxing Crescent
Oct 30
First Quarter
Nov 6
Full
Nov 14
Last Quarter
Nov 22
New

Today's Extremes

State Highs State Lows

Community

WunderPhotos

Upload Photos

1,764,812 photos uploaded!

Nearby

Snow Depth

Station Depth Elevation
Niwot 0 in 9910 ft
University Camp 0 in 10300 ft
Copeland Lake 1 in 8600 ft
Lake Eldora 0 in 9700 ft
Wild Basin 1 in 9560 ft

Earthquake Activity

City Distance Mag. Time & Date
No recent earthquake activity has been reported nearby.
Minimum magnitude displayed is 2.5.

Coastal Water Temperatures

Place Temperature
No Stations Reporting

Nearby Weather Stations